Time;durP1;ratioP1;P1;durP2;ratioP2;P2;SDS_P1;SDS_P2;PMS_P1;PMS_P2;Temp;Humidity;BMP_temperature;BMP_pressure;BME280_temperature;BME280_humidity;BME280_pressure;Samples;Min_cycle;Max_cycle;Signal;HPM_P1;HPM_P2
2022/05/26 00:00:59;;;;;;;23.95;7.20;;;;;;;;;;5063832;28;20048;-83
2022/05/26 00:03:25;;;;;;;27.05;7.35;;;;;;;;;;5038107;28;20053;-83
2022/05/26 00:05:51;;;;;;;22.83;6.78;;;;;;;;;;5052637;28;20126;-83
2022/05/26 00:08:17;;;;;;;24.83;7.70;;;;;;;;;;5058121;28;20110;-83
2022/05/26 00:10:43;;;;;;;20.75;6.55;;;;;;;;;;5065288;28;20037;-83
2022/05/26 00:13:09;;;;;;;23.85;7.07;;;;;;;;;;5051828;28;20049;-83
2022/05/26 00:15:35;;;;;;;23.40;6.53;;;;;;;;;;5034426;28;20375;-83
2022/05/26 00:18:02;;;;;;;23.60;6.47;;;;;;;;;;5049360;28;20103;-83
2022/05/26 00:20:28;;;;;;;18.02;6.40;;;;;;;;;;5049885;28;20122;-83
2022/05/26 00:22:54;;;;;;;23.45;6.78;;;;;;;;;;5050835;28;20238;-83
2022/05/26 00:25:20;;;;;;;24.77;6.80;;;;;;;;;;5050100;28;20045;-83
2022/05/26 00:27:46;;;;;;;26.40;6.60;;;;;;;;;;5052002;28;20066;-83
2022/05/26 00:30:12;;;;;;;25.25;6.28;;;;;;;;;;5070497;28;20083;-83
2022/05/26 00:32:38;;;;;;;19.33;6.45;;;;;;;;;;5065828;28;20048;-83
2022/05/26 00:35:04;;;;;;;25.25;6.95;;;;;;;;;;5070482;28;20040;-84
2022/05/26 00:37:30;;;;;;;23.55;6.63;;;;;;;;;;5068641;28;20067;-83
2022/05/26 00:39:56;;;;;;;19.25;6.20;;;;;;;;;;5068666;28;20393;-83
2022/05/26 00:42:22;;;;;;;19.83;6.78;;;;;;;;;;5047791;28;20052;-83
2022/05/26 00:44:50;;;;;;;26.17;6.93;;;;;;;;;;5070465;28;20044;-83
2022/05/26 00:47:17;;;;;;;23.42;6.75;;;;;;;;;;5040269;28;20111;-83
2022/05/26 00:49:53;;;;;;;20.00;6.05;;;;;;;;;;5066203;28;20052;-83
2022/05/26 00:52:20;;;;;;;22.15;6.40;;;;;;;;;;5055069;28;20091;-83
2022/05/26 00:54:47;;;;;;;23.40;5.93;;;;;;;;;;5050805;28;20486;-83
2022/05/26 00:57:19;;;;;;;16.40;5.53;;;;;;;;;;5040682;28;20052;-84
2022/05/26 00:59:51;;;;;;;16.30;5.15;;;;;;;;;;5065951;28;20078;-83
2022/05/26 01:02:18;;;;;;;17.58;5.00;;;;;;;;;;5070146;28;20110;-83
2022/05/26 01:04:50;;;;;;;15.00;4.53;;;;;;;;;;5070296;28;20369;-83
2022/05/26 01:07:19;;;;;;;15.70;4.75;;;;;;;;;;5042526;28;20044;-83
2022/05/26 01:09:45;;;;;;;20.10;4.70;;;;;;;;;;5066359;28;20116;-83
2022/05/26 01:12:12;;;;;;;14.05;4.38;;;;;;;;;;5052072;28;20045;-83
2022/05/26 01:14:40;;;;;;;14.57;4.93;;;;;;;;;;5050050;28;20049;-83
2022/05/26 01:17:13;;;;;;;12.43;4.30;;;;;;;;;;5042332;28;20034;-83
2022/05/26 01:19:58;;;;;;;12.20;4.40;;;;;;;;;;5064646;28;20131;-83
2022/05/26 01:22:24;;;;;;;18.00;4.57;;;;;;;;;;5069855;28;20493;-83
2022/05/26 01:25:09;;;;;;;14.45;4.32;;;;;;;;;;5058849;28;20072;-83
2022/05/26 01:27:40;;;;;;;15.30;4.28;;;;;;;;;;5048304;28;20400;-83
2022/05/26 01:30:14;;;;;;;20.02;5.07;;;;;;;;;;5064518;28;20417;-83
2022/05/26 01:32:39;;;;;;;15.60;4.60;;;;;;;;;;5052371;28;20473;-83
2022/05/26 01:35:06;;;;;;;16.45;5.15;;;;;;;;;;5029244;28;20497;-83
2022/05/26 01:37:53;;;;;;;15.15;4.85;;;;;;;;;;5039768;28;20493;-83
2022/05/26 01:40:28;;;;;;;18.02;4.97;;;;;;;;;;5041380;28;20048;-83
2022/05/26 01:43:07;;;;;;;13.20;4.93;;;;;;;;;;5026186;28;20473;-83
2022/05/26 01:45:40;;;;;;;17.50;5.10;;;;;;;;;;5065083;28;20128;-83
2022/05/26 01:48:39;;;;;;;14.88;4.80;;;;;;;;;;5037218;28;20386;-83
2022/05/26 01:51:12;;;;;;;20.00;5.40;;;;;;;;;;5026109;28;20053;-83
2022/05/26 01:53:43;;;;;;;15.63;4.97;;;;;;;;;;5050071;28;20462;-83
2022/05/26 01:56:25;;;;;;;11.73;4.43;;;;;;;;;;5053944;28;20032;-83
2022/05/26 01:58:57;;;;;;;16.38;4.32;;;;;;;;;;5057457;28;20048;-83
2022/05/26 02:01:25;;;;;;;18.42;4.65;;;;;;;;;;5070198;28;20125;-83
2022/05/26 02:03:53;;;;;;;13.52;5.13;;;;;;;;;;5069122;28;20048;-83
2022/05/26 02:06:26;;;;;;;14.30;5.20;;;;;;;;;;5048655;28;20048;-83
2022/05/26 02:08:52;;;;;;;13.20;4.38;;;;;;;;;;5049621;28;20074;-83
2022/05/26 02:11:20;;;;;;;12.63;4.72;;;;;;;;;;5068669;28;20491;-83
2022/05/26 02:13:55;;;;;;;12.43;4.20;;;;;;;;;;5039827;28;20045;-83
2022/05/26 02:16:37;;;;;;;11.07;3.78;;;;;;;;;;5038741;28;20045;-83
2022/05/26 02:19:03;;;;;;;11.73;3.75;;;;;;;;;;5049102;28;20497;-84
2022/05/26 02:21:36;;;;;;;18.13;4.30;;;;;;;;;;5068110;28;20048;-84
2022/05/26 02:24:38;;;;;;;11.50;3.92;;;;;;;;;;5068515;28;20102;-83
2022/05/26 02:27:05;;;;;;;12.43;4.03;;;;;;;;;;5020620;28;20048;-83
2022/05/26 02:32:17;;;;;;;12.82;4.15;;;;;;;;;;5010411;28;20053;-83
2022/05/26 02:34:44;;;;;;;12.65;3.60;;;;;;;;;;5027461;28;20053;-83
2022/05/26 02:37:11;;;;;;;12.25;3.50;;;;;;;;;;5003667;28;20546;-83
2022/05/26 02:39:37;;;;;;;10.85;3.85;;;;;;;;;;5020377;28;20506;-83
2022/05/26 02:42:03;;;;;;;10.52;4.03;;;;;;;;;;5010685;28;20058;-83
2022/05/26 02:44:31;;;;;;;10.45;3.78;;;;;;;;;;5015662;28;20533;-83
2022/05/26 02:47:15;;;;;;;14.25;3.80;;;;;;;;;;5006467;28;20100;-83
2022/05/26 02:49:56;;;;;;;11.25;3.75;;;;;;;;;;5003123;28;20060;-83
2022/05/26 02:52:25;;;;;;;9.35;3.60;;;;;;;;;;5026731;28;20049;-83
2022/05/26 02:54:54;;;;;;;11.38;3.63;;;;;;;;;;5010173;28;20140;-83
2022/05/26 02:57:30;;;;;;;11.23;3.90;;;;;;;;;;5020212;28;20084;-83
2022/05/26 03:00:02;;;;;;;11.65;3.47;;;;;;;;;;4993067;28;20045;-83
2022/05/26 03:02:48;;;;;;;12.23;3.88;;;;;;;;;;5069479;28;20083;-83
2022/05/26 03:05:17;;;;;;;11.00;3.70;;;;;;;;;;5071154;28;20071;-83
2022/05/26 03:07:45;;;;;;;12.80;3.63;;;;;;;;;;5044207;28;20056;-83
2022/05/26 03:10:12;;;;;;;11.68;3.58;;;;;;;;;;5065051;28;20140;-83
2022/05/26 03:12:39;;;;;;;10.40;3.75;;;;;;;;;;5072293;28;20056;-83
2022/05/26 03:15:06;;;;;;;10.43;3.80;;;;;;;;;;5072303;28;20051;-83
2022/05/26 03:17:32;;;;;;;8.75;3.30;;;;;;;;;;5046323;28;20439;-83
2022/05/26 03:19:58;;;;;;;10.10;3.85;;;;;;;;;;5064265;28;20051;-83
2022/05/26 03:22:25;;;;;;;10.73;3.63;;;;;;;;;;5073010;28;20045;-84
2022/05/26 03:24:51;;;;;;;12.13;3.97;;;;;;;;;;5072462;28;20044;-83
2022/05/26 03:27:18;;;;;;;9.82;3.33;;;;;;;;;;5061224;28;20057;-83
2022/05/26 03:29:44;;;;;;;9.60;3.47;;;;;;;;;;5057504;28;20047;-83
2022/05/26 03:32:10;;;;;;;8.95;3.45;;;;;;;;;;5072785;28;20135;-83
2022/05/26 03:42:52;;;;;;;8.73;2.75;;;;;;;;;;5072801;28;20357;-83
2022/05/26 03:45:19;;;;;;;8.05;2.63;;;;;;;;;;5052091;28;20588;-83
2022/05/26 03:47:45;;;;;;;10.18;2.88;;;;;;;;;;5043704;28;20053;-83
2022/05/26 03:50:12;;;;;;;11.40;2.85;;;;;;;;;;5062270;28;20110;-83
2022/05/26 03:52:38;;;;;;;11.00;2.83;;;;;;;;;;5072250;28;20094;-83
2022/05/26 03:55:04;;;;;;;7.07;2.72;;;;;;;;;;5071383;28;20045;-83
2022/05/26 03:57:31;;;;;;;6.95;2.70;;;;;;;;;;5061439;28;20083;-83
2022/05/26 03:59:57;;;;;;;6.13;2.63;;;;;;;;;;5058487;28;20040;-83
2022/05/26 04:02:23;;;;;;;11.75;3.00;;;;;;;;;;5072813;28;20040;-83
2022/05/26 04:04:49;;;;;;;7.55;2.83;;;;;;;;;;5052648;28;20047;-83
2022/05/26 04:07:16;;;;;;;10.88;2.80;;;;;;;;;;5048876;28;20132;-83
2022/05/26 04:09:42;;;;;;;10.10;2.88;;;;;;;;;;5054113;28;20475;-83
2022/05/26 04:12:08;;;;;;;11.23;2.95;;;;;;;;;;5056496;28;20041;-83
2022/05/26 04:14:35;;;;;;;10.75;2.53;;;;;;;;;;5049859;28;20045;-83
2022/05/26 04:17:01;;;;;;;12.60;3.03;;;;;;;;;;5049575;28;20053;-83
2022/05/26 04:19:27;;;;;;;8.25;2.65;;;;;;;;;;5047891;28;20048;-83
2022/05/26 04:24:37;;;;;;;8.75;2.80;;;;;;;;;;5072150;28;20049;-83
2022/05/26 04:27:04;;;;;;;11.55;2.85;;;;;;;;;;5063849;28;20071;-83
2022/05/26 04:29:30;;;;;;;7.07;2.40;;;;;;;;;;5032267;28;20088;-83
2022/05/26 04:31:56;;;;;;;9.70;3.00;;;;;;;;;;5033209;28;20071;-83
2022/05/26 04:34:22;;;;;;;9.35;2.70;;;;;;;;;;5062073;28;20040;-83
2022/05/26 04:36:49;;;;;;;10.68;2.63;;;;;;;;;;5068652;28;20044;-83
2022/05/26 04:39:16;;;;;;;8.55;2.80;;;;;;;;;;5039515;28;20576;-83
2022/05/26 04:41:42;;;;;;;8.18;2.65;;;;;;;;;;5051633;28;20547;-83
2022/05/26 04:44:11;;;;;;;9.10;2.78;;;;;;;;;;5068402;28;20546;-84
2022/05/26 04:46:38;;;;;;;8.65;2.80;;;;;;;;;;5071040;28;20489;-83
2022/05/26 04:49:04;;;;;;;8.05;2.65;;;;;;;;;;5042698;28;20044;-84
2022/05/26 04:51:30;;;;;;;10.65;2.45;;;;;;;;;;5071544;28;20393;-83
2022/05/26 04:53:56;;;;;;;8.63;2.50;;;;;;;;;;5064200;28;20049;-83
2022/05/26 04:56:23;;;;;;;8.15;2.90;;;;;;;;;;5071979;28;20044;-83
2022/05/26 04:58:50;;;;;;;8.70;2.90;;;;;;;;;;5038993;28;20501;-84
2022/05/26 05:01:17;;;;;;;8.45;2.58;;;;;;;;;;5049631;28;20056;-84
2022/05/26 05:03:44;;;;;;;8.75;2.63;;;;;;;;;;5064556;28;20047;-84
2022/05/26 05:06:10;;;;;;;9.52;2.70;;;;;;;;;;5070124;28;20052;-84
2022/05/26 05:08:36;;;;;;;6.75;2.20;;;;;;;;;;5046314;28;20176;-83
2022/05/26 05:11:02;;;;;;;9.73;2.67;;;;;;;;;;5050531;28;20041;-83
2022/05/26 05:13:29;;;;;;;7.55;2.60;;;;;;;;;;5061291;28;20048;-84
2022/05/26 05:16:02;;;;;;;7.00;2.40;;;;;;;;;;5070542;28;20087;-83
2022/05/26 05:18:28;;;;;;;7.57;2.50;;;;;;;;;;5059132;28;20048;-83
2022/05/26 05:20:56;;;;;;;7.20;2.47;;;;;;;;;;5061793;28;20040;-83
2022/05/26 05:23:22;;;;;;;7.28;2.20;;;;;;;;;;5059574;28;20405;-84
2022/05/26 05:25:50;;;;;;;7.72;2.15;;;;;;;;;;5070461;28;20481;-84
2022/05/26 05:28:21;;;;;;;11.35;2.80;;;;;;;;;;5057442;28;20045;-84
2022/05/26 05:30:53;;;;;;;6.95;2.30;;;;;;;;;;5049315;28;20045;-84
2022/05/26 05:33:24;;;;;;;8.95;2.60;;;;;;;;;;5057656;28;20128;-84
2022/05/26 05:36:10;;;;;;;7.68;2.63;;;;;;;;;;5069487;28;20046;-84
2022/05/26 05:38:38;;;;;;;8.15;2.40;;;;;;;;;;5055648;28;20143;-84
2022/05/26 05:41:04;;;;;;;7.10;2.60;;;;;;;;;;5036948;28;20045;-83
2022/05/26 05:43:31;;;;;;;8.73;2.30;;;;;;;;;;5069602;28;20040;-83
2022/05/26 05:45:57;;;;;;;7.97;2.17;;;;;;;;;;5063467;28;20052;-84
2022/05/26 05:48:23;;;;;;;8.27;2.53;;;;;;;;;;5070083;28;20051;-84
2022/05/26 05:50:50;;;;;;;5.15;2.20;;;;;;;;;;5067118;28;20053;-84
2022/05/26 05:53:16;;;;;;;8.32;2.30;;;;;;;;;;5067657;28;20141;-83
2022/05/26 05:55:43;;;;;;;6.50;2.28;;;;;;;;;;5060624;28;20069;-84
2022/05/26 05:58:10;;;;;;;6.30;2.10;;;;;;;;;;5038195;28;20052;-84
2022/05/26 06:00:36;;;;;;;8.27;2.40;;;;;;;;;;5048654;28;20537;-95
2022/05/26 06:03:03;;;;;;;6.90;2.35;;;;;;;;;;5070475;28;20082;-90
2022/05/26 06:05:29;;;;;;;8.27;2.50;;;;;;;;;;5062298;28;20796;-86
2022/05/26 06:07:55;;;;;;;9.38;2.63;;;;;;;;;;5029542;28;20128;-84
2022/05/26 06:10:21;;;;;;;5.82;2.47;;;;;;;;;;5042425;28;20131;-83
2022/05/26 06:12:47;;;;;;;8.55;2.45;;;;;;;;;;5063541;28;20455;-84
2022/05/26 06:15:14;;;;;;;6.45;2.28;;;;;;;;;;5048654;28;20045;-81
2022/05/26 06:17:40;;;;;;;7.10;2.53;;;;;;;;;;5069382;28;20404;-84
2022/05/26 06:20:09;;;;;;;7.55;2.60;;;;;;;;;;5051971;28;20052;-85
2022/05/26 06:22:37;;;;;;;7.38;2.20;;;;;;;;;;5049162;28;20055;-86
2022/05/26 06:25:03;;;;;;;8.20;2.60;;;;;;;;;;5049841;28;20466;-86
2022/05/26 06:30:16;;;;;;;6.90;2.25;;;;;;;;;;5050176;28;20064;-89
2022/05/26 06:38:16;;;;;;;11.55;2.60;;;;;;;;;;5047112;28;20057;-86
2022/05/26 06:40:42;;;;;;;7.22;2.17;;;;;;;;;;5047620;28;20041;-86
2022/05/26 06:43:08;;;;;;;8.80;2.35;;;;;;;;;;5047216;28;20041;-85
2022/05/26 06:45:35;;;;;;;6.22;2.53;;;;;;;;;;5041504;28;20049;-87
2022/05/26 06:48:01;;;;;;;9.05;2.38;;;;;;;;;;5028772;28;20050;-82
2022/05/26 06:50:28;;;;;;;8.70;2.45;;;;;;;;;;5052890;28;20060;-85
2022/05/26 06:52:54;;;;;;;7.13;2.20;;;;;;;;;;5050735;28;20045;-84
2022/05/26 06:55:20;;;;;;;13.02;2.85;;;;;;;;;;5047725;28;20124;-85
2022/05/26 06:57:46;;;;;;;9.00;2.40;;;;;;;;;;5048089;28;20044;-85
2022/05/26 07:00:14;;;;;;;8.88;2.30;;;;;;;;;;5048158;28;20436;-85
2022/05/26 07:02:40;;;;;;;6.10;2.05;;;;;;;;;;5061158;28;20400;-85
2022/05/26 07:05:07;;;;;;;7.47;2.40;;;;;;;;;;5068090;28;20087;-85
2022/05/26 07:07:35;;;;;;;5.68;2.30;;;;;;;;;;5034325;28;20456;-84
2022/05/26 07:10:02;;;;;;;9.05;2.58;;;;;;;;;;5028551;28;20060;-85
2022/05/26 07:12:28;;;;;;;9.57;2.17;;;;;;;;;;5052782;28;20318;-85
2022/05/26 07:14:54;;;;;;;5.75;2.08;;;;;;;;;;5051483;28;20045;-85
2022/05/26 07:17:20;;;;;;;4.63;1.92;;;;;;;;;;5069593;28;20097;-85
2022/05/26 07:19:46;;;;;;;7.88;2.17;;;;;;;;;;5067906;28;20053;-85
2022/05/26 07:22:13;;;;;;;8.43;2.40;;;;;;;;;;5056050;28;20062;-85
2022/05/26 07:24:40;;;;;;;7.13;2.30;;;;;;;;;;5069745;28;20094;-85
2022/05/26 07:27:07;;;;;;;6.78;2.40;;;;;;;;;;5068752;28;20093;-85
2022/05/26 07:29:33;;;;;;;7.88;2.70;;;;;;;;;;5069225;28;20128;-85
2022/05/26 07:32:00;;;;;;;7.25;2.55;;;;;;;;;;5066454;28;20510;-85
2022/05/26 07:34:26;;;;;;;8.35;2.60;;;;;;;;;;5066037;28;20400;-85
2022/05/26 07:42:23;;;;;;;6.25;2.45;;;;;;;;;;5065290;28;20489;-85
2022/05/26 07:44:50;;;;;;;7.82;2.22;;;;;;;;;;5068474;28;20147;-85
2022/05/26 07:47:16;;;;;;;7.13;2.30;;;;;;;;;;5067679;28;20045;-85
2022/05/26 07:49:44;;;;;;;7.78;2.40;;;;;;;;;;5071444;28;20060;-85
2022/05/26 07:52:11;;;;;;;9.18;2.47;;;;;;;;;;5043960;28;20045;-85
2022/05/26 07:54:37;;;;;;;8.02;2.30;;;;;;;;;;5051416;28;20076;-85
2022/05/26 07:57:04;;;;;;;8.90;2.33;;;;;;;;;;5054262;28;20120;-85
2022/05/26 07:59:30;;;;;;;8.15;2.40;;;;;;;;;;5071404;28;20098;-85
2022/05/26 08:01:56;;;;;;;7.55;2.15;;;;;;;;;;5063729;28;20048;-85
2022/05/26 08:04:22;;;;;;;8.38;2.30;;;;;;;;;;5071326;28;20143;-86
2022/05/26 08:06:48;;;;;;;7.97;2.13;;;;;;;;;;5068775;28;20110;-85
2022/05/26 08:09:16;;;;;;;8.10;2.47;;;;;;;;;;5070933;28;20048;-85
2022/05/26 08:11:42;;;;;;;6.32;2.22;;;;;;;;;;5054929;28;20159;-85
2022/05/26 08:14:09;;;;;;;6.32;2.15;;;;;;;;;;5051180;28;20052;-85
2022/05/26 08:16:35;;;;;;;6.50;2.38;;;;;;;;;;5050400;28;20229;-85
2022/05/26 08:19:01;;;;;;;8.93;2.22;;;;;;;;;;5069935;28;20059;-85
2022/05/26 08:21:27;;;;;;;7.72;2.55;;;;;;;;;;5045049;28;20417;-85
2022/05/26 08:23:53;;;;;;;5.57;2.30;;;;;;;;;;5030273;28;20077;-85
2022/05/26 08:26:19;;;;;;;6.60;1.98;;;;;;;;;;5031376;28;20596;-85
2022/05/26 08:28:45;;;;;;;5.32;2.10;;;;;;;;;;5066926;28;20086;-85
2022/05/26 08:31:13;;;;;;;7.00;2.05;;;;;;;;;;5049145;28;20053;-85
2022/05/26 08:33:40;;;;;;;5.55;2.05;;;;;;;;;;5031170;28;20077;-85
2022/05/26 08:36:08;;;;;;;8.90;2.35;;;;;;;;;;5030677;28;20045;-85
2022/05/26 08:38:35;;;;;;;6.18;1.90;;;;;;;;;;5062480;28;20040;-85
2022/05/26 08:41:02;;;;;;;5.38;1.92;;;;;;;;;;5051951;28;20120;-85
2022/05/26 08:43:37;;;;;;;8.25;2.20;;;;;;;;;;5030598;28;20637;-85
2022/05/26 08:46:06;;;;;;;5.60;1.88;;;;;;;;;;5047973;28;20072;-85
2022/05/26 08:48:51;;;;;;;8.07;2.15;;;;;;;;;;5049442;28;20050;-85
2022/05/26 08:51:27;;;;;;;6.35;2.10;;;;;;;;;;5031733;28;20489;-85
2022/05/26 08:53:54;;;;;;;7.57;2.22;;;;;;;;;;5030773;28;20183;-85
2022/05/26 08:56:22;;;;;;;6.57;2.17;;;;;;;;;;5030598;28;20053;-85
2022/05/26 08:58:49;;;;;;;8.27;2.20;;;;;;;;;;5053907;28;20029;-85
2022/05/26 09:01:17;;;;;;;8.00;2.35;;;;;;;;;;5029749;28;20061;-85
2022/05/26 09:03:43;;;;;;;5.75;1.98;;;;;;;;;;5031484;28;20057;-85
2022/05/26 09:06:14;;;;;;;5.93;2.10;;;;;;;;;;5029875;28;20049;-85
2022/05/26 09:14:21;;;;;;;3.58;2.10;;;;;;;;;;5049716;28;20522;-85
2022/05/26 09:16:47;;;;;;;5.15;2.10;;;;;;;;;;5059454;28;20182;-85
2022/05/26 09:19:18;;;;;;;5.45;1.77;;;;;;;;;;5069529;28;20043;-85
2022/05/26 09:21:45;;;;;;;6.53;2.13;;;;;;;;;;5069810;28;20549;-85
2022/05/26 09:24:16;;;;;;;3.78;1.67;;;;;;;;;;5069405;28;20512;-85
2022/05/26 09:26:45;;;;;;;4.72;1.90;;;;;;;;;;5065202;28;20063;-85
2022/05/26 09:29:12;;;;;;;4.53;2.00;;;;;;;;;;5069568;28;20083;-85
2022/05/26 09:31:48;;;;;;;5.43;2.05;;;;;;;;;;5071231;28;20106;-85
2022/05/26 09:34:14;;;;;;;6.15;2.00;;;;;;;;;;5070805;28;20122;-85
2022/05/26 09:36:53;;;;;;;5.47;1.98;;;;;;;;;;5066467;28;20041;-85
2022/05/26 09:39:20;;;;;;;7.03;2.30;;;;;;;;;;5069731;28;20132;-85
2022/05/26 09:41:54;;;;;;;6.10;2.10;;;;;;;;;;5070682;28;20185;-85
2022/05/26 09:44:25;;;;;;;4.68;2.30;;;;;;;;;;5069709;28;20049;-85
2022/05/26 09:46:53;;;;;;;6.80;2.40;;;;;;;;;;5056828;28;20103;-85
2022/05/26 09:49:23;;;;;;;5.28;2.10;;;;;;;;;;5029195;28;20493;-85
2022/05/26 09:51:50;;;;;;;4.13;1.90;;;;;;;;;;5030007;28;20501;-85
2022/05/26 09:54:30;;;;;;;6.30;2.45;;;;;;;;;;5034255;28;20041;-85
2022/05/26 09:56:57;;;;;;;5.90;2.40;;;;;;;;;;5042856;28;20057;-85
2022/05/26 09:59:27;;;;;;;8.85;2.53;;;;;;;;;;5030740;28;20041;-85
2022/05/26 10:01:57;;;;;;;7.80;2.50;;;;;;;;;;5028853;28;20136;-85
2022/05/26 10:04:27;;;;;;;5.75;2.03;;;;;;;;;;5030481;28;20048;-85
2022/05/26 10:07:06;;;;;;;3.90;2.25;;;;;;;;;;5051506;28;20048;-85
2022/05/26 10:09:39;;;;;;;8.27;2.85;;;;;;;;;;5069018;28;20040;-85
2022/05/26 10:12:25;;;;;;;4.95;2.35;;;;;;;;;;5069036;28;20370;-85
2022/05/26 10:14:51;;;;;;;;;;;;;;;;;;5071374;28;20219;-85
2022/05/26 10:17:19;;;;;;;5.35;1.83;;;;;;;;;;5064514;28;19925;-84
2022/05/26 10:20:03;;;;;;;5.53;2.25;;;;;;;;;;5068918;28;20052;-85
2022/05/26 10:22:41;;;;;;;7.38;2.35;;;;;;;;;;5070175;28;20117;-85
2022/05/26 10:25:10;;;;;;;5.07;2.10;;;;;;;;;;5067153;28;20125;-85
2022/05/26 10:27:40;;;;;;;5.40;2.50;;;;;;;;;;5057127;28;20045;-85
2022/05/26 10:30:14;;;;;;;7.50;2.65;;;;;;;;;;5068418;28;20044;-85
2022/05/26 10:32:58;;;;;;;5.97;2.53;;;;;;;;;;5070048;28;20040;-87
2022/05/26 10:35:27;;;;;;;6.55;2.20;;;;;;;;;;5054942;28;20053;-85
2022/05/26 10:37:56;;;;;;;5.60;2.60;;;;;;;;;;5046157;28;20558;-85
2022/05/26 10:40:28;;;;;;;6.45;2.40;;;;;;;;;;5068677;28;20048;-85
2022/05/26 10:42:54;;;;;;;5.60;2.70;;;;;;;;;;5057473;28;20111;-85
2022/05/26 10:45:40;;;;;;;7.50;3.15;;;;;;;;;;5043752;28;20493;-85
2022/05/26 10:48:21;;;;;;;8.00;2.53;;;;;;;;;;5037012;28;20057;-85
2022/05/26 10:50:51;;;;;;;7.15;2.50;;;;;;;;;;5048068;28;20059;-85
2022/05/26 10:53:26;;;;;;;7.18;2.40;;;;;;;;;;5034298;28;20036;-85
2022/05/26 10:55:52;;;;;;;7.78;2.67;;;;;;;;;;5066360;28;20044;-84
2022/05/26 10:58:39;;;;;;;8.57;2.20;;;;;;;;;;5069878;28;20051;-85
2022/05/26 11:01:11;;;;;;;7.10;2.60;;;;;;;;;;5069451;28;20050;-85
2022/05/26 11:03:38;;;;;;;8.10;2.50;;;;;;;;;;5065940;28;20048;-84
2022/05/26 11:06:23;;;;;;;5.70;3.05;;;;;;;;;;5068614;28;20076;-87
2022/05/26 11:09:07;;;;;;;4.07;2.45;;;;;;;;;;5068501;28;20504;-84
2022/05/26 11:11:37;;;;;;;8.05;2.42;;;;;;;;;;5068386;28;20049;-84
2022/05/26 11:17:22;;;;;;;7.95;2.50;;;;;;;;;;5061504;28;20481;-87
2022/05/26 11:19:50;;;;;;;8.25;2.20;;;;;;;;;;5044395;28;20045;-85
2022/05/26 11:22:17;;;;;;;4.47;2.47;;;;;;;;;;5049648;28;20090;-84
2022/05/26 11:24:50;;;;;;;5.90;2.20;;;;;;;;;;5066099;28;20040;-84
2022/05/26 11:27:28;;;;;;;4.95;2.10;;;;;;;;;;5072982;28;20405;-84
2022/05/26 11:29:56;;;;;;;8.18;2.38;;;;;;;;;;5071074;28;20067;-84
2022/05/26 11:38:17;;;;;;;4.72;2.00;;;;;;;;;;5031592;28;20386;-84
2022/05/26 11:40:56;;;;;;;8.32;2.20;;;;;;;;;;5031890;28;20051;-86
2022/05/26 11:43:28;;;;;;;7.47;2.50;;;;;;;;;;5039095;28;20049;-84
2022/05/26 11:45:55;;;;;;;7.43;2.30;;;;;;;;;;5060589;28;20125;-85
2022/05/26 11:48:27;;;;;;;6.75;2.10;;;;;;;;;;5066131;28;20412;-85
2022/05/26 11:50:54;;;;;;;6.53;2.30;;;;;;;;;;5053977;28;20041;-85
2022/05/26 11:53:26;;;;;;;4.90;2.10;;;;;;;;;;5051683;28;20509;-86
2022/05/26 11:56:03;;;;;;;7.80;2.10;;;;;;;;;;5032455;28;20100;-85
2022/05/26 11:58:34;;;;;;;6.78;2.22;;;;;;;;;;5031812;28;20180;-85
2022/05/26 12:01:10;;;;;;;6.10;2.20;;;;;;;;;;5031379;28;20050;-86
2022/05/26 12:03:48;;;;;;;5.13;2.10;;;;;;;;;;5041289;28;20044;-85
2022/05/26 12:06:15;;;;;;;6.63;2.30;;;;;;;;;;5040979;28;20502;-85
2022/05/26 12:08:57;;;;;;;4.45;2.00;;;;;;;;;;5031167;28;20052;-86
2022/05/26 12:11:42;;;;;;;5.57;1.90;;;;;;;;;;5031698;28;20050;-85
2022/05/26 12:14:20;;;;;;;4.25;2.00;;;;;;;;;;5050666;28;20055;-84
2022/05/26 12:16:46;;;;;;;4.57;2.00;;;;;;;;;;5034246;28;20762;-84
2022/05/26 12:19:12;;;;;;;5.88;1.90;;;;;;;;;;5032930;28;20144;-84
2022/05/26 12:21:43;;;;;;;7.10;1.90;;;;;;;;;;5032360;28;20037;-85
2022/05/26 12:24:28;;;;;;;5.13;1.80;;;;;;;;;;5049110;28;20452;-85
2022/05/26 12:26:55;;;;;;;5.07;2.10;;;;;;;;;;5070926;28;20055;-84
2022/05/26 12:29:40;;;;;;;4.22;1.95;;;;;;;;;;5048971;28;20124;-85
2022/05/26 12:32:11;;;;;;;5.93;2.22;;;;;;;;;;5049979;28;20485;-85
2022/05/26 12:34:43;;;;;;;8.15;2.30;;;;;;;;;;5068906;28;20123;-84
2022/05/26 12:37:16;;;;;;;5.10;1.95;;;;;;;;;;5070375;28;20087;-85
2022/05/26 12:39:52;;;;;;;4.88;1.80;;;;;;;;;;5052532;28;20486;-84
2022/05/26 12:42:25;;;;;;;3.30;1.70;;;;;;;;;;5062797;28;20059;-84
2022/05/26 12:44:58;;;;;;;7.72;2.33;;;;;;;;;;5065207;28;20076;-85
2022/05/26 12:47:44;;;;;;;6.90;2.40;;;;;;;;;;5058341;28;20041;-84
2022/05/26 12:50:18;;;;;;;7.78;2.50;;;;;;;;;;5049969;28;20056;-84
2022/05/26 12:52:48;;;;;;;5.50;2.00;;;;;;;;;;5050090;28;20075;-85
2022/05/26 12:55:18;;;;;;;6.93;2.13;;;;;;;;;;5051849;28;20037;-85
2022/05/26 12:57:48;;;;;;;5.32;2.13;;;;;;;;;;5069687;28;20052;-85
2022/05/26 13:00:29;;;;;;;5.22;1.98;;;;;;;;;;5066802;28;20371;-85
2022/05/26 13:02:57;;;;;;;8.18;2.55;;;;;;;;;;5050036;28;20102;-85
2022/05/26 13:05:25;;;;;;;7.72;2.60;;;;;;;;;;5050243;28;20049;-85
2022/05/26 13:07:54;;;;;;;6.22;2.67;;;;;;;;;;5050425;28;20068;-85
2022/05/26 13:10:38;;;;;;;5.30;2.22;;;;;;;;;;5040270;28;20045;-85
2022/05/26 13:13:06;;;;;;;7.00;2.50;;;;;;;;;;5066703;28;20128;-92
2022/05/26 13:15:32;;;;;;;5.85;2.42;;;;;;;;;;5033032;28;20049;-85
2022/05/26 13:17:58;;;;;;;6.82;2.28;;;;;;;;;;5068730;28;20040;-85
2022/05/26 13:20:34;;;;;;;7.32;2.35;;;;;;;;;;5065487;28;20132;-85
2022/05/26 13:23:01;;;;;;;5.15;2.28;;;;;;;;;;5032210;28;20121;-85
2022/05/26 13:25:28;;;;;;;6.68;2.30;;;;;;;;;;5031142;28;20052;-85
2022/05/26 13:28:00;;;;;;;4.10;2.22;;;;;;;;;;5048827;28;20047;-84
2022/05/26 13:33:22;;;;;;;6.55;2.80;;;;;;;;;;5029463;28;20053;-85
2022/05/26 13:36:01;;;;;;;5.85;2.50;;;;;;;;;;5048055;28;20047;-85
2022/05/26 13:38:29;;;;;;;6.75;2.60;;;;;;;;;;5049128;28;20041;-85
2022/05/26 13:40:56;;;;;;;4.93;2.50;;;;;;;;;;5045722;28;20041;-85
2022/05/26 13:43:22;;;;;;;8.13;2.75;;;;;;;;;;5029470;28;20196;-83
2022/05/26 13:45:48;;;;;;;6.85;2.70;;;;;;;;;;5044545;28;20123;-84
2022/05/26 13:48:27;;;;;;;8.90;3.00;;;;;;;;;;5053060;28;20049;-84
2022/05/26 13:50:54;;;;;;;6.13;2.80;;;;;;;;;;5048767;28;20041;-84
2022/05/26 13:53:20;;;;;;;8.60;3.00;;;;;;;;;;5049423;28;20045;-84
2022/05/26 13:55:47;;;;;;;7.57;3.00;;;;;;;;;;5047132;28;20198;-84
2022/05/26 13:58:15;;;;;;;7.88;2.88;;;;;;;;;;5047868;28;20186;-84
2022/05/26 14:00:42;;;;;;;9.15;2.65;;;;;;;;;;5048113;28;20120;-84
2022/05/26 14:03:11;;;;;;;7.05;2.85;;;;;;;;;;5048518;28;20128;-85
2022/05/26 14:05:55;;;;;;;7.82;3.10;;;;;;;;;;5038294;28;20508;-86
2022/05/26 14:08:21;;;;;;;6.47;3.03;;;;;;;;;;5054534;28;20049;-86
2022/05/26 14:10:51;;;;;;;8.80;3.20;;;;;;;;;;5048641;28;20052;-86
2022/05/26 14:13:20;;;;;;;9.38;3.47;;;;;;;;;;5050104;28;20053;-86
2022/05/26 14:15:51;;;;;;;6.97;2.90;;;;;;;;;;5048891;28;20052;-85
2022/05/26 14:18:24;;;;;;;10.35;2.92;;;;;;;;;;5062799;28;20389;-86
2022/05/26 14:21:09;;;;;;;6.32;2.85;;;;;;;;;;5044338;28;20103;-85
2022/05/26 14:23:37;;;;;;;6.72;2.85;;;;;;;;;;5030482;28;20068;-86
2022/05/26 14:26:03;;;;;;;7.05;2.60;;;;;;;;;;5012287;28;20549;-86
2022/05/26 14:28:42;;;;;;;7.88;2.88;;;;;;;;;;5059062;28;20504;-86
2022/05/26 14:31:18;;;;;;;7.55;3.15;;;;;;;;;;5052055;28;20406;-86
2022/05/26 14:33:56;;;;;;;9.52;2.80;;;;;;;;;;5052195;28;20043;-86
2022/05/26 14:36:22;;;;;;;8.77;2.85;;;;;;;;;;5032926;28;20069;-86
2022/05/26 14:38:48;;;;;;;8.20;3.08;;;;;;;;;;5054233;28;20072;-86
2022/05/26 14:41:14;;;;;;;8.57;2.90;;;;;;;;;;5047805;28;20499;-86
2022/05/26 14:43:40;;;;;;;6.70;2.90;;;;;;;;;;5048874;28;20049;-86
2022/05/26 14:46:06;;;;;;;8.45;2.88;;;;;;;;;;5048802;28;20500;-86
2022/05/26 14:48:32;;;;;;;9.00;3.10;;;;;;;;;;5061422;28;20528;-86
2022/05/26 14:50:58;;;;;;;7.82;3.08;;;;;;;;;;5052089;28;20057;-86
2022/05/26 14:56:10;;;;;;;7.35;3.00;;;;;;;;;;5028128;28;20046;-86
2022/05/26 14:58:36;;;;;;;9.85;3.60;;;;;;;;;;5059774;28;20135;-86
2022/05/26 15:01:02;;;;;;;8.10;2.83;;;;;;;;;;5073873;28;20520;-86
2022/05/26 15:03:28;;;;;;;9.23;3.20;;;;;;;;;;5072696;28;20041;-86
2022/05/26 15:05:55;;;;;;;10.10;3.08;;;;;;;;;;5073589;28;20172;-86
2022/05/26 15:08:25;;;;;;;9.68;3.60;;;;;;;;;;5070554;28;20094;-86
2022/05/26 15:10:51;;;;;;;8.15;3.22;;;;;;;;;;5055545;28;20100;-86
2022/05/26 15:13:17;;;;;;;6.63;3.40;;;;;;;;;;5054474;28;20041;-86
2022/05/26 15:15:43;;;;;;;8.25;3.38;;;;;;;;;;5053221;28;20052;-86
2022/05/26 15:18:10;;;;;;;9.85;3.67;;;;;;;;;;5063102;28;20055;-85
2022/05/26 15:20:36;;;;;;;8.13;2.95;;;;;;;;;;5073388;28;20036;-86
2022/05/26 15:23:02;;;;;;;6.10;2.92;;;;;;;;;;5045727;28;20057;-86
2022/05/26 15:25:29;;;;;;;7.55;3.42;;;;;;;;;;5031803;28;20087;-86
2022/05/26 15:27:58;;;;;;;7.35;2.65;;;;;;;;;;5049339;28;20057;-86
2022/05/26 15:30:24;;;;;;;7.32;3.10;;;;;;;;;;5051764;28;20567;-86
2022/05/26 15:32:50;;;;;;;8.35;2.83;;;;;;;;;;5036164;28;20563;-84
2022/05/26 15:35:18;;;;;;;6.22;2.80;;;;;;;;;;5052148;28;20123;-86
2022/05/26 15:37:45;;;;;;;7.30;2.80;;;;;;;;;;5049516;28;20053;-85
2022/05/26 15:40:13;;;;;;;7.88;2.90;;;;;;;;;;5032643;28;20053;-86
2022/05/26 15:42:39;;;;;;;6.28;2.50;;;;;;;;;;5031726;28;20060;-86